Time;durP1;ratioP1;P1;durP2;ratioP2;P2;SDS_P1;SDS_P2;PMS_P1;PMS_P2;Temp;Humidity;BMP_temperature;BMP_pressure;BME280_temperature;BME280_humidity;BME280_pressure;Samples;Min_cycle;Max_cycle;Signal;HPM_P1;HPM_P2
2021/01/02 00:02:48;;;;;;;16.30;7.22;;;;;;;4.22;64.70;99438.31;5069375;28;20032;-72
2021/01/02 00:05:15;;;;;;;13.35;7.07;;;;;;;4.20;64.45;99436.94;5069281;28;20029;-72
2021/01/02 00:08:00;;;;;;;12.02;5.63;;;;;;;4.20;65.10;99450.97;5069534;28;20093;-72
2021/01/02 00:10:42;;;;;;;11.07;5.97;;;;;;;4.18;65.36;99454.88;5069231;28;20039;-72
2021/01/02 00:13:26;;;;;;;10.70;5.57;;;;;;;4.20;65.83;99455.47;5070615;28;20036;-72
2021/01/02 00:16:20;;;;;;;9.80;5.93;;;;;;;4.18;66.45;99458.34;5069435;28;20399;-71
2021/01/02 00:19:00;;;;;;;11.48;5.97;;;;;;;4.14;66.61;99457.19;5069571;28;20025;-72
2021/01/02 00:21:27;;;;;;;9.98;5.22;;;;;;;4.19;66.83;99467.91;5070780;28;20236;-71
2021/01/02 00:24:04;;;;;;;9.27;4.28;;;;;;;4.22;66.93;99475.38;5070636;28;20032;-71
2021/01/02 00:26:44;;;;;;;13.65;7.22;;;;;;;4.21;66.02;99471.13;5069061;28;20025;-71
2021/01/02 00:29:21;;;;;;;18.60;9.40;;;;;;;4.15;65.69;99464.06;5070373;28;20033;-71
2021/01/02 00:32:08;;;;;;;17.05;9.48;;;;;;;4.23;65.95;99478.84;5070372;28;20476;-71
2021/01/02 00:34:44;;;;;;;10.23;7.43;;;;;;;4.23;65.76;99481.50;5070397;28;20059;-71
2021/01/02 00:37:16;;;;;;;12.38;6.68;;;;;;;4.22;66.42;99478.03;5070394;28;20028;-71
2021/01/02 00:40:01;;;;;;;16.27;8.50;;;;;;;4.19;66.02;99467.91;5070195;28;20032;-71
2021/01/02 00:42:28;;;;;;;15.73;8.45;;;;;;;4.18;65.94;99465.47;5068764;28;20599;-71
2021/01/02 00:44:58;;;;;;;15.50;10.25;;;;;;;4.18;65.56;99474.22;5070376;28;20458;-70
2021/01/02 00:47:27;;;;;;;9.82;6.25;;;;;;;4.24;65.72;99486.56;5070156;28;20510;-71
2021/01/02 00:49:54;;;;;;;19.83;9.32;;;;;;;4.25;66.18;99492.69;5069113;28;20457;-71
2021/01/02 00:52:33;;;;;;;15.43;9.18;;;;;;;4.24;65.92;99483.91;5072385;28;20032;-71
2021/01/02 00:55:24;;;;;;;20.70;10.20;;;;;;;4.27;65.78;99491.44;5073092;28;20025;-71
2021/01/02 00:57:49;;;;;;;13.65;8.25;;;;;;;4.27;65.49;99493.25;5072673;28;20035;-71
2021/01/02 01:00:19;;;;;;;17.45;7.55;;;;;;;4.24;65.42;99499.81;5074024;28;20032;-71
2021/01/02 01:03:33;;;;;;;12.60;6.97;;;;;;;4.22;64.85;99501.06;5072686;28;20115;-71
2021/01/02 01:06:02;;;;;;;13.68;6.90;;;;;;;4.15;64.73;99496.66;5069744;28;20044;-70
2021/01/02 01:08:32;;;;;;;9.77;6.50;;;;;;;4.12;64.58;99501.59;5073851;28;20821;-71
2021/01/02 01:11:00;;;;;;;10.77;6.43;;;;;;;3.99;64.38;99490.13;5072488;28;20450;-71
2021/01/02 01:13:26;;;;;;;;;;;;;;;4.01;65.01;99495.19;5074021;28;20028;-71
2021/01/02 01:15:51;;;;;;;14.75;7.90;;;;;;;3.91;64.85;99484.31;5072446;28;20367;-71
2021/01/02 01:18:16;;;;;;;11.60;6.65;;;;;;;3.92;65.12;99491.22;5072088;28;20060;-71
2021/01/02 01:20:47;;;;;;;12.23;6.78;;;;;;;3.80;64.70;99478.72;5073889;28;20016;-71
2021/01/02 01:23:31;;;;;;;15.02;7.47;;;;;;;3.72;65.10;99472.94;5073211;28;20036;-71
2021/01/02 01:26:27;;;;;;;11.10;5.78;;;;;;;3.73;65.17;99487.78;5072135;28;20119;-71
2021/01/02 01:28:58;;;;;;;8.25;5.13;;;;;;;3.60;65.18;99480.78;5073493;28;20108;-71
2021/01/02 01:31:28;;;;;;;15.20;6.35;;;;;;;3.59;65.26;99489.72;5073198;28;20502;-71
2021/01/02 01:34:00;;;;;;;9.93;6.38;;;;;;;3.52;65.66;99497.75;5073325;28;20531;-71
2021/01/02 01:36:34;;;;;;;13.30;7.80;;;;;;;3.42;65.60;99486.84;5071894;28;20028;-71
2021/01/02 01:39:04;;;;;;;13.75;8.50;;;;;;;3.42;65.58;99497.41;5073250;28;20036;-71
2021/01/02 01:41:35;;;;;;;9.77;6.55;;;;;;;3.39;65.78;99503.16;5071725;28;20087;-71
2021/01/02 01:44:10;;;;;;;10.57;6.53;;;;;;;3.37;65.41;99513.94;5072878;28;20064;-71
2021/01/02 01:46:42;;;;;;;14.05;6.65;;;;;;;3.25;65.89;99500.63;5071752;28;20472;-71
2021/01/02 01:49:10;;;;;;;11.98;6.90;;;;;;;3.18;65.90;99502.50;5073038;28;20082;-71
2021/01/02 01:51:39;;;;;;;11.45;6.18;;;;;;;3.18;65.96;99505.94;5071608;28;20039;-71
2021/01/02 01:54:20;;;;;;;11.48;6.35;;;;;;;3.16;65.90;99501.91;5073011;28;20052;-71
2021/01/02 01:57:01;;;;;;;11.80;5.78;;;;;;;3.04;66.00;99494.69;5071674;28;20457;-71
2021/01/02 01:59:42;;;;;;;11.68;5.72;;;;;;;3.04;66.72;99499.97;5072689;28;20487;-71
2021/01/02 02:02:16;;;;;;;11.60;6.35;;;;;;;2.98;66.13;99498.19;5071529;28;20024;-73
2021/01/02 02:04:47;;;;;;;15.80;6.38;;;;;;;2.95;66.54;99501.25;5072456;28;20530;-73
2021/01/02 02:07:17;;;;;;;9.68;5.60;;;;;;;2.83;66.87;99493.22;5071134;28;20123;-72
2021/01/02 02:09:52;;;;;;;8.30;4.93;;;;;;;2.83;66.90;99502.97;5071360;28;20028;-73
2021/01/02 02:12:18;;;;;;;12.50;5.32;;;;;;;2.88;66.82;99508.41;5072170;28;20112;-71
2021/01/02 02:15:03;;;;;;;10.27;5.47;;;;;;;2.84;67.45;99500.09;5072290;28;20064;-71
2021/01/02 02:17:39;;;;;;;11.30;6.18;;;;;;;2.83;67.42;99508.25;5071059;28;20032;-73
2021/01/02 02:20:18;;;;;;;10.38;5.10;;;;;;;2.83;67.52;99500.31;5072555;28;20077;-73
2021/01/02 02:22:44;;;;;;;12.30;5.95;;;;;;;2.78;68.42;99493.03;5071097;28;20031;-73
2021/01/02 02:25:15;;;;;;;10.20;5.40;;;;;;;2.75;67.88;99497.94;5072283;28;20032;-73
2021/01/02 02:27:43;;;;;;;9.13;4.90;;;;;;;2.75;68.34;99508.50;5072323;28;20027;-73
2021/01/02 02:30:08;;;;;;;11.63;6.50;;;;;;;2.77;67.95;99506.47;5072058;28;20455;-70
2021/01/02 02:32:52;;;;;;;9.68;5.63;;;;;;;2.77;67.88;99511.75;5072003;28;20262;-70
2021/01/02 02:35:20;;;;;;;7.10;4.75;;;;;;;2.77;68.38;99503.81;5070673;28;20062;-73
2021/01/02 02:37:48;;;;;;;8.65;4.50;;;;;;;2.76;68.02;99499.56;5071859;28;20021;-73
2021/01/02 02:40:19;;;;;;;12.93;6.10;;;;;;;2.74;68.18;99494.50;5070549;28;20119;-73
2021/01/02 02:42:58;;;;;;;11.32;5.00;;;;;;;2.72;67.81;99489.44;5072272;28;20079;-73
2021/01/02 02:45:24;;;;;;;;;;;;;;;2.72;67.95;99497.34;5071873;28;20481;-73
2021/01/02 02:47:54;;;;;;;10.13;5.07;;;;;;;2.69;67.99;99491.69;5087490;28;19966;-73
2021/01/02 02:50:25;;;;;;;13.75;5.75;;;;;;;2.67;68.40;99499.81;5070342;28;20424;-73
2021/01/02 02:53:09;;;;;;;11.60;5.82;;;;;;;2.64;68.04;99491.53;5071830;28;20036;-73
2021/01/02 02:55:44;;;;;;;11.75;6.57;;;;;;;2.45;68.36;99461.56;5070264;28;20064;-72
2021/01/02 02:58:11;;;;;;;10.52;5.22;;;;;;;2.55;68.57;99489.13;5071716;28;20104;-73
2021/01/02 03:00:37;;;;;;;13.98;4.82;;;;;;;2.58;68.45;99490.53;5071464;28;20032;-73
2021/01/02 03:03:04;;;;;;;8.55;4.57;;;;;;;2.48;68.42;99475.16;5070398;28;20036;-72
2021/01/02 03:05:29;;;;;;;8.77;5.05;;;;;;;2.56;68.31;99489.91;5070034;28;20126;-72
2021/01/02 03:07:56;;;;;;;9.35;5.50;;;;;;;2.55;68.06;99496.22;5070266;28;20544;-72
2021/01/02 03:10:22;;;;;;;9.23;4.97;;;;;;;2.54;68.41;99492.00;5070989;28;20038;-72
2021/01/02 03:12:52;;;;;;;10.82;4.63;;;;;;;2.54;68.44;99497.25;5071415;28;20089;-71
2021/01/02 03:15:20;;;;;;;7.90;4.55;;;;;;;2.54;68.92;99502.53;5070576;28;20037;-73
2021/01/02 03:17:46;;;;;;;9.05;5.13;;;;;;;2.54;68.35;99502.53;5070107;28;20403;-73
2021/01/02 03:20:15;;;;;;;9.13;4.53;;;;;;;2.51;68.88;99498.47;5071336;28;20499;-71
2021/01/02 03:22:44;;;;;;;;;;;;;;;2.54;68.43;99505.19;5070133;28;20029;-71
2021/01/02 03:25:12;;;;;;;10.27;5.30;;;;;;;2.51;68.64;99506.38;5069852;28;20379;-71
2021/01/02 03:27:39;;;;;;;7.13;4.57;;;;;;;2.50;68.91;99515.34;5071019;28;20044;-71
2021/01/02 03:30:09;;;;;;;10.32;5.13;;;;;;;2.32;68.67;99505.50;5071262;28;20046;-71
2021/01/02 03:32:36;;;;;;;7.82;4.47;;;;;;;2.46;68.56;99524.69;5070676;28;20029;-73
2021/01/02 03:35:06;;;;;;;7.43;3.65;;;;;;;2.44;68.87;99524.13;5071234;28;20400;-73
2021/01/02 03:37:33;;;;;;;13.02;5.65;;;;;;;2.43;69.28;99521.66;5070900;28;20021;-73
2021/01/02 03:39:59;;;;;;;9.52;5.50;;;;;;;2.34;68.92;99513.19;5070802;28;20032;-74
2021/01/02 03:42:24;;;;;;;9.20;5.75;;;;;;;2.41;68.67;99527.16;5070868;28;20039;-71
2021/01/02 03:44:49;;;;;;;9.25;5.18;;;;;;;2.39;68.92;99532.66;5070868;28;20032;-73
2021/01/02 03:47:15;;;;;;;12.25;6.25;;;;;;;2.30;68.75;99519.91;5069690;28;20032;-71
2021/01/02 03:49:41;;;;;;;14.07;5.97;;;;;;;2.36;69.33;99532.28;5070567;28;20028;-72
2021/01/02 03:52:06;;;;;;;10.95;5.95;;;;;;;2.31;69.26;99524.97;5070998;28;20028;-72
2021/01/02 03:54:33;;;;;;;10.27;6.60;;;;;;;2.33;68.91;99525.59;5070803;28;20115;-71
2021/01/02 03:56:58;;;;;;;11.52;6.72;;;;;;;2.29;69.07;99520.94;5069516;28;20033;-72
2021/01/02 03:59:24;;;;;;;11.68;6.75;;;;;;;2.27;69.16;99515.88;5070664;28;20036;-71
2021/01/02 04:01:56;;;;;;;11.38;7.28;;;;;;;2.31;69.17;99527.63;5070848;28;20028;-71
2021/01/02 04:04:22;;;;;;;15.38;7.78;;;;;;;2.32;69.45;99523.97;5070704;28;20040;-72
2021/01/02 04:06:48;;;;;;;9.88;6.45;;;;;;;2.33;69.17;99535.31;5070486;28;20442;-72
2021/01/02 04:09:13;;;;;;;10.10;6.07;;;;;;;2.29;69.46;99526.22;5069590;28;20078;-72
2021/01/02 04:11:43;;;;;;;9.07;5.63;;;;;;;2.32;69.58;99537.16;5069315;28;20036;-72
2021/01/02 04:14:09;;;;;;;11.60;6.90;;;;;;;2.32;69.78;99531.06;5070527;28;20124;-72
2021/01/02 04:16:35;;;;;;;10.02;6.93;;;;;;;2.34;69.47;99536.94;5070580;28;20036;-71
2021/01/02 04:19:01;;;;;;;9.70;6.68;;;;;;;2.32;69.77;99536.34;5069384;28;20098;-72
2021/01/02 04:21:26;;;;;;;11.93;6.57;;;;;;;2.34;70.41;99540.38;5069494;28;20045;-72
2021/01/02 04:23:52;;;;;;;10.88;6.45;;;;;;;2.34;69.98;99540.38;5070595;28;20024;-71
2021/01/02 04:26:19;;;;;;;12.32;7.53;;;;;;;2.29;70.01;99539.41;5070955;28;20060;-72
2021/01/02 04:28:44;;;;;;;12.98;8.43;;;;;;;2.31;69.92;99538.19;5074716;28;20035;-71
2021/01/02 04:31:10;;;;;;;14.05;9.57;;;;;;;2.38;70.17;99544.25;5074583;28;20104;-71
2021/01/02 04:33:35;;;;;;;15.15;10.68;;;;;;;2.37;69.56;99549.75;5072745;28;20048;-71
2021/01/02 04:36:00;;;;;;;12.55;8.27;;;;;;;2.34;69.25;99552.78;5074858;28;20033;-71
2021/01/02 04:38:26;;;;;;;13.63;8.30;;;;;;;2.34;69.37;99558.84;5072983;28;20043;-72
2021/01/02 04:40:55;;;;;;;18.77;9.70;;;;;;;2.32;69.63;99570.66;5073072;28;20111;-71
2021/01/02 04:43:21;;;;;;;14.95;9.45;;;;;;;2.24;69.11;99558.50;5072980;28;20543;-72
2021/01/02 04:45:47;;;;;;;23.83;10.05;;;;;;;2.21;69.14;99558.91;5073913;28;20120;-71
2021/01/02 04:48:12;;;;;;;23.67;13.20;;;;;;;2.21;69.29;99562.38;5072943;28;20071;-72
2021/01/02 04:50:38;;;;;;;24.23;13.18;;;;;;;2.22;69.07;99581.66;5089619;28;20089;-71
2021/01/02 04:53:05;;;;;;;35.35;16.77;;;;;;;2.21;69.34;99572.09;5072820;28;20064;-71
2021/01/02 04:55:32;;;;;;;33.17;15.63;;;;;;;2.14;69.47;99569.50;5073880;28;20029;-71
2021/01/02 04:57:59;;;;;;;30.10;15.48;;;;;;;2.15;69.29;99584.31;5074080;28;20071;-71
2021/01/02 05:00:26;;;;;;;30.98;15.98;;;;;;;2.12;69.10;99579.44;5072468;28;20472;-72
2021/01/02 05:02:53;;;;;;;31.27;15.73;;;;;;;2.05;68.77;99570.72;5072624;28;20209;-71
2021/01/02 05:05:19;;;;;;;29.60;14.32;;;;;;;2.02;69.36;99577.22;5073857;28;20025;-72
2021/01/02 05:07:44;;;;;;;25.70;12.88;;;;;;;1.96;69.22;99570.13;5072309;28;20495;-72
2021/01/02 05:10:10;;;;;;;19.10;10.50;;;;;;;2.03;69.13;99589.41;5072559;28;20036;-72
2021/01/02 05:12:35;;;;;;;17.23;8.20;;;;;;;2.00;68.79;99583.72;5072203;28;20025;-72
2021/01/02 05:15:04;;;;;;;14.15;8.00;;;;;;;1.97;68.92;99597.34;5074038;28;20072;-71
2021/01/02 05:17:30;;;;;;;12.07;7.60;;;;;;;1.94;68.60;99601.19;5073567;28;20318;-71
2021/01/02 05:20:01;;;;;;;22.60;10.38;;;;;;;1.81;68.81;99591.47;5072360;28;20502;-71
2021/01/02 05:22:26;;;;;;;19.95;10.48;;;;;;;1.87;68.76;99603.03;5072051;28;20044;-72
2021/01/02 05:25:08;;;;;;;14.30;8.32;;;;;;;1.84;68.77;99606.88;5073607;28;20107;-71
2021/01/02 05:27:35;;;;;;;18.95;10.23;;;;;;;1.82;68.98;99611.56;5072099;28;20025;-71
2021/01/02 05:30:13;;;;;;;14.75;9.35;;;;;;;1.77;69.52;99611.38;5073514;28;20151;-72
2021/01/02 05:33:00;;;;;;;18.00;8.10;;;;;;;1.81;69.38;99624.94;5073233;28;20033;-71
2021/01/02 05:35:28;;;;;;;17.08;8.05;;;;;;;1.70;69.58;99602.66;5073139;28;20040;-72
2021/01/02 05:37:54;;;;;;;19.05;8.55;;;;;;;1.80;69.94;99628.63;5071067;28;20020;-72
2021/01/02 05:40:42;;;;;;;16.20;8.63;;;;;;;1.68;69.64;99615.22;5071570;28;20392;-71
2021/01/02 05:43:07;;;;;;;;;;;;;;;1.83;69.45;99636.09;5073730;28;20129;-72
2021/01/02 05:45:33;;;;;;;20.77;10.10;;;;;;;1.83;69.79;99636.09;5072918;28;19960;-72
2021/01/02 05:48:18;;;;;;;19.05;9.75;;;;;;;1.84;69.54;99637.72;5071846;28;20503;-72
2021/01/02 05:50:55;;;;;;;21.92;10.15;;;;;;;1.80;69.84;99637.31;5071667;28;20016;-72
2021/01/02 05:53:31;;;;;;;15.80;9.00;;;;;;;1.87;70.01;99650.53;5071512;28;20024;-72
2021/01/02 05:56:13;;;;;;;20.45;11.18;;;;;;;1.83;69.53;99641.38;5071700;28;20419;-72
2021/01/02 05:58:43;;;;;;;17.75;9.45;;;;;;;1.91;69.62;99654.38;5072671;28;20028;-72
2021/01/02 06:01:14;;;;;;;18.95;10.55;;;;;;;1.94;69.84;99653.16;5071576;28;20497;-72
2021/01/02 06:03:44;;;;;;;20.27;11.60;;;;;;;1.99;69.92;99658.59;5072609;28;20031;-72
2021/01/02 06:06:14;;;;;;;30.95;16.90;;;;;;;1.96;69.65;99651.91;5072760;28;20407;-72
2021/01/02 06:08:43;;;;;;;42.88;25.10;;;;;;;2.11;69.23;99661.44;5072513;28;20404;-72
2021/01/02 06:11:14;;;;;;;28.48;14.65;;;;;;;2.18;69.87;99662.25;5072691;28;20025;-72
2021/01/02 06:13:42;;;;;;;40.83;18.42;;;;;;;2.23;69.88;99665.91;5071121;28;20036;-72
2021/01/02 06:16:08;;;;;;;50.55;24.42;;;;;;;2.30;69.51;99668.53;5071295;28;20036;-72
2021/01/02 06:18:37;;;;;;;61.53;29.17;;;;;;;2.38;69.32;99667.47;5071007;28;20032;-72
2021/01/02 06:21:05;;;;;;;60.63;31.15;;;;;;;2.43;68.73;99674.78;5071245;28;20025;-72
2021/01/02 06:23:32;;;;;;;57.03;26.15;;;;;;;2.50;67.81;99691.44;5072065;28;20020;-72
2021/01/02 06:25:58;;;;;;;53.78;26.63;;;;;;;2.55;68.20;99681.03;5072335;28;20498;-72
2021/01/02 06:28:25;;;;;;;55.95;26.45;;;;;;;2.52;67.75;99670.91;5072375;28;20028;-72
2021/01/02 06:30:58;;;;;;;48.43;22.10;;;;;;;2.63;67.79;99686.09;5070591;28;20029;-72
2021/01/02 06:33:26;;;;;;;42.40;21.23;;;;;;;2.69;67.07;99693.19;5072085;28;20059;-72
2021/01/02 06:35:51;;;;;;;47.65;23.55;;;;;;;2.74;67.24;99692.59;5070690;28;20537;-72
2021/01/02 06:38:16;;;;;;;41.13;20.20;;;;;;;2.77;65.94;99694.00;5072433;28;20115;-72
2021/01/02 06:40:45;;;;;;;38.00;17.88;;;;;;;2.83;65.86;99691.34;5071844;28;20032;-72
2021/01/02 06:43:18;;;;;;;44.63;21.65;;;;;;;2.94;65.52;99703.09;5071615;28;20493;-72
2021/01/02 06:45:46;;;;;;;41.13;20.63;;;;;;;2.98;65.53;99701.66;5070085;28;20107;-72
2021/01/02 06:48:24;;;;;;;46.87;22.10;;;;;;;3.06;65.38;99699.78;5070542;28;20095;-72
2021/01/02 06:50:54;;;;;;;47.42;23.20;;;;;;;3.10;65.47;99696.53;5071483;28;20165;-72
2021/01/02 06:53:23;;;;;;;47.92;24.17;;;;;;;3.23;65.66;99697.47;5072159;28;20111;-72
2021/01/02 06:55:58;;;;;;;49.03;25.27;;;;;;;3.30;64.96;99696.41;5071565;28;20170;-72
2021/01/02 06:58:24;;;;;;;45.83;21.05;;;;;;;3.40;65.09;99700.44;5070272;28;20027;-72
2021/01/02 07:00:50;;;;;;;40.67;20.58;;;;;;;3.44;65.02;99691.03;5069763;28;20032;-72
2021/01/02 07:03:40;;;;;;;30.27;16.70;;;;;;;3.58;65.93;99705.00;5071399;28;20066;-72
2021/01/02 07:06:21;;;;;;;35.88;17.08;;;;;;;3.64;65.21;99704.16;5070213;28;20029;-73
2021/01/02 07:08:51;;;;;;;34.38;16.33;;;;;;;3.63;64.80;99692.75;5070017;28;20116;-72
2021/01/02 07:11:33;;;;;;;26.33;15.00;;;;;;;3.74;65.32;99703.69;5070234;28;20142;-72
2021/01/02 07:14:08;;;;;;;29.02;13.50;;;;;;;3.93;65.71;99708.00;5070088;28;20457;-72
2021/01/02 07:16:53;;;;;;;21.67;12.18;;;;;;;4.02;65.52;99716.47;5071150;28;20066;-72
2021/01/02 07:19:30;;;;;;;31.35;13.15;;;;;;;4.13;65.39;99722.91;5071454;28;20031;-72
2021/01/02 07:22:05;;;;;;;24.23;13.52;;;;;;;4.21;65.32;99721.81;5071274;28;20108;-72
2021/01/02 07:24:49;;;;;;;38.83;15.60;;;;;;;4.31;65.63;99733.53;5071363;28;20026;-72
2021/01/02 07:27:23;;;;;;;29.77;13.00;;;;;;;4.34;64.99;99721.69;5071353;28;20111;-73
2021/01/02 07:30:02;;;;;;;25.75;14.00;;;;;;;4.42;64.81;99707.34;5069780;28;20028;-72
2021/01/02 07:32:30;;;;;;;31.58;16.25;;;;;;;4.57;64.49;99721.06;5071252;28;20020;-72
2021/01/02 07:34:58;;;;;;;33.17;17.23;;;;;;;4.64;64.28;99737.72;5071179;28;20507;-72
2021/01/02 07:37:25;;;;;;;30.23;16.97;;;;;;;4.74;64.62;99731.91;5069895;28;20028;-72
2021/01/02 07:40:03;;;;;;;39.17;18.67;;;;;;;4.84;63.95;99726.09;5069637;28;20552;-72
2021/01/02 07:42:31;;;;;;;34.35;21.48;;;;;;;4.88;64.24;99721.97;5069845;28;20028;-72
2021/01/02 07:45:00;;;;;;;52.72;29.50;;;;;;;5.04;63.68;99733.81;5070707;28;20028;-72
2021/01/02 07:47:27;;;;;;;62.30;28.08;;;;;;;5.08;63.61;99723.59;5070750;28;20029;-72
2021/01/02 07:50:20;;;;;;;62.13;31.77;;;;;;;5.23;63.02;99731.16;5071026;28;20074;-72
2021/01/02 07:52:50;;;;;;;72.25;31.15;;;;;;;5.24;62.59;99728.25;5065848;28;20037;-72
2021/01/02 07:55:17;;;;;;;72.60;31.63;;;;;;;5.35;63.17;99732.00;5069637;28;20036;-72
2021/01/02 07:57:43;;;;;;;73.43;34.03;;;;;;;5.45;63.57;99734.91;5069355;28;20506;-72
2021/01/02 08:00:10;;;;;;;64.25;30.20;;;;;;;5.59;62.89;99732.91;5069627;28;20021;-72
2021/01/02 08:02:39;;;;;;;79.35;37.28;;;;;;;5.61;62.36;99722.88;5068578;28;20124;-72
2021/01/02 08:05:09;;;;;;;89.80;42.70;;;;;;;5.68;62.33;99728.06;5069553;28;20115;-72
2021/01/02 08:07:35;;;;;;;89.63;44.03;;;;;;;5.85;62.10;99741.50;5070602;28;20051;-72
2021/01/02 08:10:00;;;;;;;79.57;42.00;;;;;;;5.91;61.88;99737.94;5069511;28;20535;-72
2021/01/02 08:12:26;;;;;;;80.78;40.15;;;;;;;5.96;62.29;99737.25;5071032;28;20059;-72
2021/01/02 08:14:52;;;;;;;76.43;37.08;;;;;;;6.08;62.36;99746.09;5085997;28;20025;-73
2021/01/02 08:17:19;;;;;;;54.63;31.80;;;;;;;6.11;62.01;99725.44;5069704;28;20506;-73
2021/01/02 08:19:47;;;;;;;66.90;32.10;;;;;;;6.31;61.44;99747.16;5069168;28;20016;-72
2021/01/02 08:22:30;;;;;;;67.97;31.55;;;;;;;6.35;61.44;99737.69;5069320;28;20024;-72
2021/01/02 08:24:57;;;;;;;56.30;29.20;;;;;;;6.34;60.95;99733.41;5069124;28;20043;-72
2021/01/02 08:27:24;;;;;;;53.60;29.10;;;;;;;6.32;61.43;99724.03;5070507;28;20091;-72
2021/01/02 08:29:49;;;;;;;59.42;30.58;;;;;;;6.50;61.13;99739.88;5068765;28;20029;-73
2021/01/02 08:32:15;;;;;;;58.63;31.02;;;;;;;6.52;61.34;99737.00;5070875;28;20035;-72
2021/01/02 08:34:45;;;;;;;62.50;32.60;;;;;;;6.52;61.81;99748.41;5068759;28;20511;-72
2021/01/02 08:37:14;;;;;;;62.30;37.45;;;;;;;6.49;60.86;99748.06;5069108;28;20423;-73
2021/01/02 08:39:40;;;;;;;72.15;35.38;;;;;;;6.53;60.85;99750.03;5069952;28;20480;-73
2021/01/02 08:42:06;;;;;;;66.55;34.53;;;;;;;6.49;61.24;99738.25;5070712;28;20159;-73
2021/01/02 08:44:35;;;;;;;66.05;36.17;;;;;;;6.58;61.07;99733.41;5070249;28;20082;-73
2021/01/02 08:47:02;;;;;;;64.18;36.70;;;;;;;6.62;61.73;99725.78;5069009;28;20484;-72
2021/01/02 08:49:28;;;;;;;59.17;32.55;;;;;;;6.71;61.38;99749.13;5070166;28;20516;-71
2021/01/02 08:52:12;;;;;;;62.78;34.90;;;;;;;6.67;61.58;99728.53;5069904;28;20384;-71
2021/01/02 08:54:38;;;;;;;64.85;35.28;;;;;;;6.78;61.27;99733.03;5070434;28;20032;-73
2021/01/02 08:57:31;;;;;;;66.97;35.72;;;;;;;6.86;61.63;99729.19;5069018;28;20484;-73
2021/01/02 09:00:07;;;;;;;56.25;32.95;;;;;;;6.88;60.81;99717.31;5070400;28;20040;-73
2021/01/02 09:02:32;;;;;;;47.45;25.13;;;;;;;6.96;61.19;99718.78;5070334;28;20030;-73
2021/01/02 09:05:09;;;;;;;56.22;27.88;;;;;;;7.03;60.78;99721.28;5070103;28;20032;-73
2021/01/02 09:07:35;;;;;;;54.17;28.50;;;;;;;7.12;60.82;99717.22;5070167;28;20029;-73
2021/01/02 09:10:18;;;;;;;48.85;25.73;;;;;;;7.17;60.13;99719.97;5070017;28;20086;-73
2021/01/02 09:13:19;;;;;;;42.67;23.00;;;;;;;7.26;60.69;99716.94;5068669;28;20033;-73
2021/01/02 09:16:03;;;;;;;48.97;24.05;;;;;;;7.37;60.27;99719.56;5065256;28;20045;-73
2021/01/02 09:18:32;;;;;;;41.95;24.15;;;;;;;7.43;59.63;99711.69;5073400;28;20033;-73
2021/01/02 09:21:06;;;;;;;43.45;24.05;;;;;;;7.48;60.12;99709.09;5073128;28;20419;-73
2021/01/02 09:23:38;;;;;;;35.13;21.27;;;;;;;7.53;59.38;99707.34;5071893;28;20067;-73
2021/01/02 09:26:23;;;;;;;45.75;23.80;;;;;;;7.53;59.90;99696.69;5073223;28;20032;-73
2021/01/02 09:28:49;;;;;;;46.72;22.35;;;;;;;7.60;59.28;99695.75;5073211;28;20077;-73
2021/01/02 09:31:15;;;;;;;36.95;21.20;;;;;;;7.69;59.28;99697.75;5072124;28;20021;-73
2021/01/02 09:33:40;;;;;;;36.25;20.38;;;;;;;7.79;59.16;99699.00;5073088;28;20063;-73
2021/01/02 09:36:06;;;;;;;38.80;21.27;;;;;;;7.85;59.38;99690.84;5073477;28;20024;-73
2021/01/02 09:38:32;;;;;;;53.50;27.98;;;;;;;7.90;58.98;99695.44;5071983;28;20120;-73
2021/01/02 09:40:58;;;;;;;50.78;27.33;;;;;;;7.93;59.02;99684.28;5072862;28;20676;-74
2021/01/02 09:43:23;;;;;;;57.42;31.00;;;;;;;7.90;58.78;99674.13;5071888;28;20021;-73
2021/01/02 09:45:49;;;;;;;70.72;37.85;;;;;;;7.98;59.09;99687.06;5072922;28;20071;-73
2021/01/02 09:48:15;;;;;;;61.53;34.33;;;;;;;7.97;58.86;99665.97;5071513;28;20021;-73
2021/01/02 09:50:43;;;;;;;64.60;33.08;;;;;;;8.03;58.93;99672.97;5072827;28;20099;-73
2021/01/02 09:53:09;;;;;;;;;;;;;;;8.09;58.65;99671.22;5073162;28;20471;-74
2021/01/02 09:55:35;;;;;;;55.67;26.50;;;;;;;8.14;58.47;99664.09;5071606;28;19966;-74
2021/01/02 09:58:00;;;;;;;41.20;23.77;;;;;;;8.18;58.29;99654.56;5072811;28;20028;-73
2021/01/02 10:00:27;;;;;;;36.33;22.15;;;;;;;8.22;58.74;99654.09;5073175;28;20094;-73
2021/01/02 10:02:56;;;;;;;36.50;19.80;;;;;;;8.31;58.47;99656.09;5071201;28;20036;-71
2021/01/02 10:05:23;;;;;;;29.58;17.77;;;;;;;8.38;58.48;99647.09;5071292;28;20396;-73
2021/01/02 10:07:48;;;;;;;35.83;19.63;;;;;;;8.39;57.97;99628.19;5072525;28;20074;-73
2021/01/02 10:10:16;;;;;;;32.35;18.63;;;;;;;8.44;57.95;99628.25;5072499;28;20028;-73
2021/01/02 10:12:48;;;;;;;34.55;18.08;;;;;;;8.54;57.93;99624.16;5071052;28;20025;-73
2021/01/02 10:15:15;;;;;;;32.33;16.85;;;;;;;8.52;58.01;99616.41;5072572;28;20028;-73
2021/01/02 10:17:40;;;;;;;24.92;14.82;;;;;;;8.49;58.00;99593.72;5070969;28;20039;-73
2021/01/02 10:20:09;;;;;;;20.90;12.45;;;;;;;8.68;58.08;99614.72;5072489;28;20474;-73
2021/01/02 10:22:34;;;;;;;23.30;11.52;;;;;;;8.71;57.59;99608.09;5072348;28;20020;-73
2021/01/02 10:25:00;;;;;;;17.90;7.97;;;;;;;8.71;57.82;99603.53;5087191;28;20060;-73
2021/01/02 10:27:26;;;;;;;12.55;6.53;;;;;;;8.78;57.96;99608.69;5070951;28;20020;-73
2021/01/02 10:29:54;;;;;;;8.20;4.85;;;;;;;8.82;58.42;99609.78;5070651;28;20036;-74
2021/01/02 10:32:22;;;;;;;13.77;6.38;;;;;;;8.82;58.30;99601.78;5072030;28;20560;-73
2021/01/02 10:34:50;;;;;;;14.68;7.45;;;;;;;8.79;58.33;99587.09;5070410;28;20419;-73
2021/01/02 10:37:17;;;;;;;;;;;;;;;8.98;58.57;99597.44;5071320;28;20419;-73
2021/01/02 10:39:43;;;;;;;9.45;4.43;;;;;;;8.97;58.33;99587.81;5071733;28;19912;-73
2021/01/02 10:42:10;;;;;;;7.80;4.75;;;;;;;9.06;58.21;99594.31;5071878;28;20058;-73
2021/01/02 10:44:36;;;;;;;8.32;4.85;;;;;;;9.11;57.96;99586.34;5071927;28;20025;-73
2021/01/02 10:47:02;;;;;;;6.40;4.07;;;;;;;9.17;58.36;99586.38;5070264;28;20036;-72
2021/01/02 10:49:28;;;;;;;5.15;4.43;;;;;;;9.17;57.56;99578.38;5070473;28;20066;-73
2021/01/02 10:51:54;;;;;;;6.35;3.42;;;;;;;9.23;58.05;99577.41;5071620;28;20031;-73
2021/01/02 10:54:21;;;;;;;5.20;3.92;;;;;;;9.22;58.82;99565.91;5070477;28;20396;-73
2021/01/02 10:56:51;;;;;;;5.28;3.55;;;;;;;9.30;58.32;99569.97;5071437;28;20059;-73
2021/01/02 10:59:19;;;;;;;6.25;3.85;;;;;;;9.37;58.26;99572.44;5070445;28;20028;-73
2021/01/02 11:01:51;;;;;;;8.40;4.75;;;;;;;9.38;58.45;99555.34;5070160;28;20055;-72
2021/01/02 11:04:19;;;;;;;8.43;4.38;;;;;;;9.49;58.46;99553.56;5070255;28;20059;-72
2021/01/02 11:06:48;;;;;;;10.77;5.20;;;;;;;9.51;58.21;99549.59;5069877;28;20028;-73
2021/01/02 11:09:14;;;;;;;8.65;5.30;;;;;;;9.58;58.02;99554.69;5071692;28;20072;-72
2021/01/02 11:11:41;;;;;;;11.98;6.32;;;;;;;9.57;58.20;99545.88;5071160;28;20475;-72
2021/01/02 11:14:10;;;;;;;13.32;5.32;;;;;;;9.44;58.17;99528.44;5069952;28;20028;-72
2021/01/02 11:16:43;;;;;;;9.27;6.13;;;;;;;9.65;58.28;99547.25;5071656;28;20033;-72
2021/01/02 11:19:22;;;;;;;9.93;5.45;;;;;;;9.71;58.25;99550.78;5071015;28;20104;-72
2021/01/02 11:21:49;;;;;;;12.18;6.55;;;;;;;9.72;58.17;99539.81;5069579;28;20085;-72
2021/01/02 11:24:16;;;;;;;7.63;4.28;;;;;;;9.74;58.67;99553.75;5070865;28;20050;-72
2021/01/02 11:26:46;;;;;;;7.45;5.05;;;;;;;9.73;59.09;99556.69;5069871;28;20063;-72
2021/01/02 11:29:14;;;;;;;8.13;5.50;;;;;;;9.76;59.30;99548.97;5069837;28;20032;-72
2021/01/02 11:31:40;;;;;;;9.95;4.22;;;;;;;9.80;58.86;99543.88;5069768;28;20024;-72
2021/01/02 11:34:06;;;;;;;12.05;5.93;;;;;;;9.84;59.13;99544.16;5069369;28;20055;-72
2021/01/02 11:36:32;;;;;;;9.65;6.13;;;;;;;9.86;59.29;99544.72;5068889;28;20024;-72
2021/01/02 11:38:57;;;;;;;9.45;6.15;;;;;;;9.87;59.13;99549.00;5070845;28;20035;-72
2021/01/02 11:41:52;;;;;;;7.45;5.38;;;;;;;9.91;59.59;99553.56;5070810;28;20059;-72
2021/01/02 11:44:21;;;;;;;9.80;6.28;;;;;;;9.80;59.94;99527.84;5061840;28;20093;-72
2021/01/02 11:46:49;;;;;;;10.27;6.22;;;;;;;9.97;59.59;99542.91;5070218;28;20121;-72
2021/01/02 11:49:18;;;;;;;11.73;5.85;;;;;;;9.99;59.62;99546.13;5069501;28;20467;-72
2021/01/02 11:51:49;;;;;;;6.82;4.75;;;;;;;9.98;59.34;99531.94;5069389;28;20547;-72